createdAt,value
2018-10-15T00:02:20.481Z,8.70
2018-10-15T00:04:48.922Z,9.67
2018-10-15T00:07:21.812Z,9.33
2018-10-15T00:09:49.897Z,11.60
2018-10-15T00:12:18.061Z,11.53
2018-10-15T00:14:46.143Z,10.77
2018-10-15T00:17:14.842Z,11.07
2018-10-15T00:19:42.905Z,10.73
2018-10-15T00:22:11.463Z,10.80
2018-10-15T00:24:40.093Z,9.80
2018-10-15T00:27:08.285Z,11.73
2018-10-15T00:29:36.367Z,10.47
2018-10-15T00:32:04.607Z,10.20
2018-10-15T00:34:32.968Z,9.20
2018-10-15T00:37:01.077Z,10.40
2018-10-15T00:39:29.432Z,11.00
2018-10-15T00:41:57.586Z,11.07
2018-10-15T00:44:25.969Z,11.30
2018-10-15T00:46:54.046Z,11.00
2018-10-15T00:49:22.141Z,10.93
2018-10-15T00:51:50.401Z,11.13
2018-10-15T00:54:18.464Z,10.70
2018-10-15T00:56:46.598Z,11.07
2018-10-15T00:59:14.656Z,10.07
2018-10-15T01:01:42.748Z,9.67
2018-10-15T01:04:10.801Z,9.97
2018-10-15T01:06:38.864Z,9.20
2018-10-15T01:09:07.840Z,8.80
2018-10-15T01:11:35.916Z,11.43
2018-10-15T01:14:04.333Z,10.97
2018-10-15T01:16:32.394Z,9.27
2018-10-15T01:19:00.481Z,9.93
2018-10-15T01:21:31.719Z,10.77
2018-10-15T01:24:00.511Z,9.30
2018-10-15T01:26:34.308Z,10.47
2018-10-15T01:29:03.470Z,9.80
2018-10-15T01:31:31.654Z,10.50
2018-10-15T01:33:59.778Z,10.30
2018-10-15T01:36:27.936Z,10.37
2018-10-15T01:38:56.368Z,9.60
2018-10-15T01:41:24.776Z,10.10
2018-10-15T01:43:52.832Z,9.37
2018-10-15T01:46:21.933Z,9.73
2018-10-15T01:48:50.005Z,9.97
2018-10-15T01:51:18.125Z,10.20
2018-10-15T01:53:46.447Z,9.03
2018-10-15T01:56:14.646Z,9.47
2018-10-15T01:58:42.701Z,9.40
2018-10-15T02:01:10.783Z,9.30
2018-10-15T02:03:38.839Z,9.03
2018-10-15T02:06:07.034Z,9.63
2018-10-15T02:08:35.340Z,10.20
2018-10-15T02:11:03.481Z,9.30
2018-10-15T02:13:31.561Z,9.20
2018-10-15T02:15:59.654Z,9.73
2018-10-15T02:18:27.736Z,10.27
2018-10-15T02:20:55.781Z,10.50
2018-10-15T02:23:23.904Z,9.57
2018-10-15T02:25:52.012Z,10.33
2018-10-15T02:28:20.101Z,9.10
2018-10-15T02:30:48.141Z,9.50
2018-10-15T02:33:16.553Z,9.20
2018-10-15T02:35:44.609Z,9.50
2018-10-15T02:38:12.805Z,9.20
2018-10-15T02:40:40.865Z,8.93
2018-10-15T02:43:08.983Z,9.20
2018-10-15T02:45:37.161Z,8.37
2018-10-15T02:48:05.385Z,8.80
2018-10-15T02:50:33.537Z,8.50
2018-10-15T02:53:01.876Z,8.87
2018-10-15T02:55:30.067Z,9.87
2018-10-15T02:57:58.210Z,8.40
2018-10-15T03:00:26.524Z,9.17
2018-10-15T03:02:54.585Z,9.40
2018-10-15T03:05:22.649Z,8.60
2018-10-15T03:07:50.699Z,9.70
2018-10-15T03:10:18.773Z,8.53
2018-10-15T03:12:46.860Z,9.40
2018-10-15T03:15:14.920Z,8.90
2018-10-15T03:17:43.093Z,9.53
2018-10-15T03:20:12.442Z,9.13
2018-10-15T03:22:41.496Z,9.10
2018-10-15T03:25:10.593Z,9.63
2018-10-15T03:27:39.081Z,8.40
2018-10-15T03:30:08.052Z,9.77
2018-10-15T03:32:36.236Z,8.47
2018-10-15T03:35:04.774Z,8.50
2018-10-15T03:37:32.879Z,8.33
2018-10-15T03:40:01.186Z,8.43
2018-10-15T03:42:29.452Z,8.83
2018-10-15T03:44:57.715Z,10.17
2018-10-15T03:47:25.866Z,9.13
2018-10-15T03:49:53.980Z,9.87
2018-10-15T03:52:22.072Z,9.50
2018-10-15T03:54:50.237Z,9.33
2018-10-15T03:57:18.709Z,9.90
2018-10-15T03:59:46.841Z,8.87
2018-10-15T04:02:15.103Z,8.80
2018-10-15T04:04:43.396Z,9.27
2018-10-15T04:07:11.554Z,9.70
2018-10-15T04:09:39.618Z,8.60
2018-10-15T04:12:07.727Z,9.53
2018-10-15T04:14:36.018Z,9.60
2018-10-15T04:17:04.936Z,8.70
2018-10-15T04:19:33.013Z,10.83
2018-10-15T04:22:01.193Z,8.70
2018-10-15T04:24:29.458Z,9.37
2018-10-15T04:26:57.553Z,10.67
2018-10-15T04:29:25.745Z,8.90
2018-10-15T04:31:53.813Z,9.90
2018-10-15T04:34:21.876Z,9.90
2018-10-15T04:36:49.944Z,9.80
2018-10-15T04:39:18.042Z,9.40
2018-10-15T04:41:46.165Z,9.00
2018-10-15T04:44:14.262Z,9.20
2018-10-15T04:46:42.509Z,9.73
2018-10-15T04:49:10.692Z,8.70
2018-10-15T04:51:38.928Z,9.17
2018-10-15T04:54:07.016Z,10.30
2018-10-15T04:56:35.425Z,10.03
2018-10-15T04:59:03.858Z,10.40
2018-10-15T05:01:31.986Z,10.03
2018-10-15T05:04:00.381Z,10.30
2018-10-15T05:06:28.626Z,9.33
2018-10-15T05:08:56.804Z,10.03
2018-10-15T05:11:24.924Z,15.20
2018-10-15T05:13:53.168Z,21.27
2018-10-15T05:16:21.294Z,17.70
2018-10-15T05:18:49.429Z,10.40
2018-10-15T05:21:17.928Z,10.57
2018-10-15T05:23:46.186Z,10.20
2018-10-15T05:26:14.356Z,10.70
2018-10-15T05:28:42.436Z,10.93
2018-10-15T05:31:11.240Z,10.90
2018-10-15T05:33:40.305Z,17.67
2018-10-15T05:36:08.444Z,11.83
2018-10-15T05:38:36.779Z,10.00
2018-10-15T05:41:05.041Z,10.17
2018-10-15T05:43:33.519Z,9.07
2018-10-15T05:46:01.704Z,10.40
2018-10-15T05:48:29.815Z,10.30
2018-10-15T05:50:57.918Z,10.83
2018-10-15T05:53:26.111Z,11.83
2018-10-15T05:55:54.169Z,10.77
2018-10-15T05:58:22.272Z,10.20
2018-10-15T06:00:50.341Z,10.07
2018-10-15T06:03:18.461Z,10.87
2018-10-15T06:05:46.526Z,11.37
2018-10-15T06:08:14.604Z,10.10
2018-10-15T06:10:42.664Z,9.20
2018-10-15T06:13:10.904Z,9.93
2018-10-15T06:15:39.125Z,11.60
2018-10-15T06:18:07.252Z,10.70
2018-10-15T06:20:36.078Z,10.30
2018-10-15T06:23:04.174Z,10.13
2018-10-15T06:25:32.253Z,10.53
2018-10-15T06:28:00.404Z,10.07
2018-10-15T06:30:28.649Z,9.87
2018-10-15T06:32:56.770Z,10.40
2018-10-15T06:35:24.848Z,9.60
2018-10-15T06:37:53.009Z,11.00
2018-10-15T06:40:21.395Z,9.70
2018-10-15T06:42:49.534Z,9.83
2018-10-15T06:45:17.752Z,9.83
2018-10-15T06:47:46.048Z,9.30
2018-10-15T06:50:14.106Z,10.20
2018-10-15T06:52:42.180Z,11.50
2018-10-15T06:55:10.367Z,11.03
2018-10-15T06:57:39.317Z,12.27
2018-10-15T07:00:08.296Z,11.17
2018-10-15T07:02:36.880Z,12.00
2018-10-15T07:05:05.457Z,11.73
2018-10-15T07:07:33.722Z,11.33
2018-10-15T07:10:02.125Z,10.93
2018-10-15T07:12:30.381Z,11.37
2018-10-15T07:14:58.454Z,11.67
2018-10-15T07:17:26.549Z,11.63
2018-10-15T07:19:54.643Z,11.97
2018-10-15T07:22:22.797Z,11.23
2018-10-15T07:24:59.360Z,10.57
2018-10-15T07:27:27.550Z,11.50
2018-10-15T07:29:55.702Z,11.37
2018-10-15T07:32:23.828Z,12.37
2018-10-15T07:34:51.989Z,11.73
2018-10-15T07:37:20.053Z,12.60
2018-10-15T07:39:48.149Z,12.17
2018-10-15T07:42:16.290Z,12.83
2018-10-15T07:44:44.613Z,12.30
2018-10-15T07:47:12.680Z,12.97
2018-10-15T07:49:40.876Z,11.03
2018-10-15T07:52:09.009Z,11.03
2018-10-15T07:54:38.236Z,10.53
2018-10-15T07:57:06.692Z,12.10
2018-10-15T07:59:34.766Z,11.60
2018-10-15T08:02:02.931Z,10.40
2018-10-15T08:04:31.197Z,11.77
2018-10-15T08:06:59.626Z,12.47
2018-10-15T08:09:27.748Z,12.10
2018-10-15T08:11:55.812Z,12.03
2018-10-15T08:14:23.930Z,11.73
2018-10-15T08:16:52.204Z,12.20
2018-10-15T08:19:20.296Z,11.57
2018-10-15T08:21:48.378Z,13.10
2018-10-15T08:24:16.513Z,12.27
2018-10-15T08:26:44.585Z,12.67
2018-10-15T08:29:12.989Z,11.70
2018-10-15T08:31:41.047Z,11.80
2018-10-15T08:34:09.143Z,11.87
2018-10-15T08:36:37.226Z,12.17
2018-10-15T08:39:07.079Z,10.83
2018-10-15T08:41:35.181Z,11.93
2018-10-15T08:44:03.484Z,10.90
2018-10-15T08:46:31.562Z,9.93
2018-10-15T08:48:59.685Z,10.57
2018-10-15T08:51:27.833Z,10.83
2018-10-15T08:53:55.980Z,10.33
2018-10-15T08:56:24.066Z,9.30
2018-10-15T08:58:52.517Z,10.20
2018-10-15T09:01:21.231Z,9.03
2018-10-15T09:03:49.474Z,8.90
2018-10-15T09:06:17.837Z,8.83
2018-10-15T09:08:46.363Z,9.20
2018-10-15T09:11:14.398Z,9.80
2018-10-15T09:13:42.548Z,8.30
2018-10-15T09:16:10.642Z,9.40
2018-10-15T09:18:38.732Z,9.10
2018-10-15T09:21:06.823Z,9.80
2018-10-15T09:23:35.081Z,8.90
2018-10-15T09:26:03.371Z,8.97
2018-10-15T09:28:31.631Z,8.87
2018-10-15T09:30:59.780Z,8.40
2018-10-15T09:33:28.020Z,8.50
2018-10-15T09:35:56.356Z,8.07
2018-10-15T09:38:24.480Z,8.90
2018-10-15T09:40:52.774Z,10.40
2018-10-15T09:43:21.064Z,8.17
2018-10-15T09:45:49.245Z,8.13
2018-10-15T09:48:17.530Z,8.00
2018-10-15T09:50:45.998Z,8.10
2018-10-15T09:53:14.182Z,8.33
2018-10-15T09:55:42.391Z,7.80
2018-10-15T09:58:10.544Z,8.60
2018-10-15T10:00:44.300Z,7.80
2018-10-15T10:03:12.522Z,7.60
2018-10-15T10:05:40.601Z,7.53
2018-10-15T10:08:08.926Z,8.10
2018-10-15T10:10:37.453Z,8.13
2018-10-15T10:13:05.636Z,6.40
2018-10-15T10:15:33.850Z,7.37
2018-10-15T10:18:02.089Z,7.30
2018-10-15T10:20:30.215Z,7.20
2018-10-15T10:22:58.333Z,7.10
2018-10-15T10:25:26.630Z,7.70
2018-10-15T10:27:54.745Z,6.93
2018-10-15T10:30:22.865Z,6.90
2018-10-15T10:32:51.056Z,7.00
2018-10-15T10:35:58.640Z,7.83
2018-10-15T10:38:37.566Z,6.53
2018-10-15T10:41:05.976Z,7.53
2018-10-15T10:43:34.629Z,7.23
2018-10-15T10:46:03.323Z,7.03
2018-10-15T10:48:31.630Z,7.87
2018-10-15T10:50:59.700Z,7.33
2018-10-15T10:53:27.914Z,6.80
2018-10-15T10:55:56.010Z,7.00
2018-10-15T10:58:24.212Z,7.30
2018-10-15T11:00:52.777Z,6.30
2018-10-15T11:03:20.850Z,7.30
2018-10-15T11:05:50.010Z,7.97
2018-10-15T11:08:18.663Z,7.00
2018-10-15T11:10:46.926Z,7.00
2018-10-15T11:13:15.073Z,6.80
2018-10-15T11:15:43.377Z,7.83
2018-10-15T11:18:11.475Z,6.30
2018-10-15T11:20:39.558Z,6.57
2018-10-15T11:23:08.300Z,6.60
2018-10-15T11:25:36.429Z,6.53
2018-10-15T11:28:04.803Z,5.70
2018-10-15T11:30:33.408Z,7.77
2018-10-15T11:33:01.530Z,7.77
2018-10-15T11:35:29.581Z,6.93
2018-10-15T11:37:57.756Z,6.63
2018-10-15T11:40:25.965Z,7.50
2018-10-15T11:42:54.013Z,6.60
2018-10-15T11:45:22.081Z,7.47
2018-10-15T11:47:50.144Z,6.60
2018-10-15T11:50:18.284Z,6.20
2018-10-15T11:52:46.449Z,6.43
2018-10-15T11:55:14.526Z,6.60
2018-10-15T11:57:43.626Z,6.47
2018-10-15T12:00:13.232Z,6.20
2018-10-15T12:02:42.282Z,5.93
2018-10-15T12:05:10.873Z,7.00
2018-10-15T12:07:39.186Z,6.17
2018-10-15T12:10:08.753Z,6.70
2018-10-15T12:12:37.145Z,6.03
2018-10-15T12:15:05.901Z,6.37
2018-10-15T12:17:34.120Z,6.20
2018-10-15T12:20:02.196Z,6.67
2018-10-15T12:22:30.314Z,7.27
2018-10-15T12:24:58.545Z,6.73
2018-10-15T12:27:26.632Z,6.80
2018-10-15T12:29:54.775Z,6.33
2018-10-15T12:32:23.162Z,6.17
2018-10-15T12:34:51.225Z,6.50
2018-10-15T12:37:19.298Z,6.70
2018-10-15T12:39:47.468Z,6.80
2018-10-15T12:42:15.769Z,6.10
2018-10-15T12:44:43.927Z,7.00
2018-10-15T12:47:12.340Z,6.70
2018-10-15T12:49:40.404Z,5.90
2018-10-15T12:52:08.566Z,6.23
2018-10-15T12:54:36.716Z,6.20
2018-10-15T12:57:05.171Z,6.83
2018-10-15T12:59:33.419Z,6.00
2018-10-15T13:02:01.486Z,6.37
2018-10-15T13:04:29.604Z,5.80
2018-10-15T13:06:57.880Z,6.63
2018-10-15T13:09:25.952Z,5.80
2018-10-15T13:11:54.026Z,7.07
2018-10-15T13:14:22.077Z,6.70
2018-10-15T13:16:50.131Z,6.50
2018-10-15T13:19:18.289Z,6.10
2018-10-15T13:21:46.486Z,6.27
2018-10-15T13:24:14.533Z,6.03
2018-10-15T13:26:42.640Z,6.07
2018-10-15T13:29:10.685Z,5.87
2018-10-15T13:31:38.800Z,7.80
2018-10-15T13:34:06.853Z,6.00
2018-10-15T13:36:35.023Z,6.57
2018-10-15T13:39:03.533Z,5.97
2018-10-15T13:41:31.688Z,6.00
2018-10-15T13:43:59.990Z,6.40
2018-10-15T13:46:28.126Z,5.67
2018-10-15T13:48:56.185Z,5.57
2018-10-15T13:51:25.201Z,6.07
2018-10-15T13:53:53.282Z,6.10
2018-10-15T13:56:21.474Z,6.17
2018-10-15T13:58:49.601Z,5.90
2018-10-15T14:01:17.676Z,6.67
2018-10-15T14:03:45.902Z,5.70
2018-10-15T14:06:14.063Z,6.00
2018-10-15T14:08:42.266Z,5.57
2018-10-15T14:11:10.367Z,5.30
2018-10-15T14:13:38.457Z,5.70
2018-10-15T14:16:06.555Z,5.73
2018-10-15T14:18:34.714Z,6.13
2018-10-15T14:21:02.789Z,5.87
2018-10-15T14:23:30.892Z,6.10
2018-10-15T14:25:59.274Z,5.90
2018-10-15T14:28:27.447Z,6.00
2018-10-15T14:30:55.564Z,5.93
2018-10-15T14:33:24.767Z,5.77
2018-10-15T14:35:52.856Z,5.47
2018-10-15T14:38:21.115Z,6.20
2018-10-15T14:40:49.385Z,5.50
2018-10-15T14:43:17.472Z,5.53
2018-10-15T14:45:45.672Z,5.60
2018-10-15T14:48:13.910Z,6.13
2018-10-15T14:50:42.416Z,5.97
2018-10-15T14:53:10.669Z,5.80
2018-10-15T14:55:38.736Z,5.80
2018-10-15T14:58:06.919Z,5.90
2018-10-15T15:00:35.101Z,5.67
2018-10-15T15:03:03.305Z,5.80
2018-10-15T15:05:31.380Z,6.03
2018-10-15T15:07:59.599Z,5.67
2018-10-15T15:10:33.412Z,5.80
2018-10-15T15:13:07.207Z,5.63
2018-10-15T15:15:35.478Z,6.47
2018-10-15T15:18:03.612Z,6.03
2018-10-15T15:20:31.672Z,5.37
2018-10-15T15:22:59.895Z,5.37
2018-10-15T15:25:28.027Z,6.07
2018-10-15T15:27:56.127Z,6.33
2018-10-15T15:30:24.374Z,5.57
2018-10-15T15:32:52.573Z,5.93
2018-10-15T15:35:20.827Z,5.53
2018-10-15T15:37:49.034Z,5.93
2018-10-15T15:40:17.102Z,5.00
2018-10-15T15:42:45.180Z,5.00
2018-10-15T15:45:14.205Z,6.47
2018-10-15T15:47:42.559Z,6.47
2018-10-15T15:50:11.317Z,5.93
2018-10-15T15:52:39.532Z,5.93
2018-10-15T15:55:08.160Z,5.53
2018-10-15T15:57:36.262Z,5.50
2018-10-15T16:00:05.754Z,5.87
2018-10-15T16:02:33.817Z,5.80
2018-10-15T16:05:01.894Z,6.00
2018-10-15T16:07:29.951Z,5.90
2018-10-15T16:09:59.402Z,5.70
2018-10-15T16:12:27.957Z,6.13
2018-10-15T16:14:56.047Z,6.80
2018-10-15T16:17:24.250Z,6.10
2018-10-15T16:19:52.408Z,5.80
2018-10-15T16:22:20.714Z,6.77
2018-10-15T16:24:48.790Z,7.33
2018-10-15T16:27:16.894Z,6.47
2018-10-15T16:29:44.963Z,7.23
2018-10-15T16:32:13.027Z,6.87
2018-10-15T16:34:41.120Z,7.13
2018-10-15T16:37:09.257Z,6.70
2018-10-15T16:39:37.438Z,6.20
2018-10-15T16:42:05.877Z,7.00
2018-10-15T16:44:33.997Z,5.90
2018-10-15T16:47:02.307Z,6.37
2018-10-15T16:49:30.393Z,16.20
2018-10-15T16:51:58.551Z,8.37
2018-10-15T16:54:26.856Z,6.77
2018-10-15T16:56:55.756Z,7.83
2018-10-15T16:59:23.863Z,7.73
2018-10-15T17:01:51.917Z,7.57
2018-10-15T17:04:20.041Z,7.43
2018-10-15T17:06:48.146Z,7.47
2018-10-15T17:09:16.946Z,7.90
2018-10-15T17:11:46.040Z,8.30
2018-10-15T17:14:14.125Z,7.33
2018-10-15T17:16:42.193Z,7.70
2018-10-15T17:19:11.638Z,8.87
2018-10-15T17:21:40.411Z,7.90
2018-10-15T17:24:08.982Z,7.70
2018-10-15T17:26:37.125Z,7.87
2018-10-15T17:29:05.464Z,7.63
2018-10-15T17:31:33.661Z,7.27
2018-10-15T17:34:01.777Z,7.20
2018-10-15T17:36:29.890Z,7.27
2018-10-15T17:38:58.013Z,8.10
2018-10-15T17:41:26.113Z,7.87
2018-10-15T17:43:54.402Z,7.90
2018-10-15T17:46:22.533Z,8.17
2018-10-15T17:48:50.617Z,9.00
2018-10-15T17:51:18.705Z,8.43
2018-10-15T17:53:46.790Z,8.43
2018-10-15T17:56:14.850Z,7.90
2018-10-15T17:58:42.952Z,8.50
2018-10-15T18:01:11.221Z,8.93
2018-10-15T18:03:39.365Z,8.80
2018-10-15T18:06:07.443Z,9.13
2018-10-15T18:08:35.697Z,14.17
2018-10-15T18:11:05.490Z,9.40
2018-10-15T18:13:33.599Z,9.70
2018-10-15T18:16:01.670Z,9.53
2018-10-15T18:18:29.758Z,10.40
2018-10-15T18:20:57.881Z,10.70
2018-10-15T18:23:25.995Z,10.17
2018-10-15T18:25:54.195Z,9.87
2018-10-15T18:28:22.388Z,9.93
2018-10-15T18:30:50.520Z,11.40
2018-10-15T18:33:18.576Z,10.57
2018-10-15T18:35:46.674Z,11.30
2018-10-15T18:38:14.838Z,10.20
2018-10-15T18:40:43.116Z,11.10
2018-10-15T18:43:11.286Z,11.60
2018-10-15T18:45:39.582Z,11.80
2018-10-15T18:48:08.053Z,12.50
2018-10-15T18:50:36.207Z,12.00
2018-10-15T18:53:04.611Z,12.23
2018-10-15T18:55:32.784Z,11.80
2018-10-15T18:58:01.332Z,13.30
2018-10-15T19:00:29.427Z,12.70
2018-10-15T19:02:57.788Z,12.90
2018-10-15T19:05:26.105Z,13.43
2018-10-15T19:07:54.374Z,13.97
2018-10-15T19:10:22.623Z,13.43
2018-10-15T19:12:50.688Z,14.10
2018-10-15T19:15:18.788Z,12.93
2018-10-15T19:17:46.913Z,13.10
2018-10-15T19:20:15.370Z,13.80
2018-10-15T19:22:44.293Z,14.10
2018-10-15T19:25:12.589Z,13.47
2018-10-15T19:27:40.679Z,15.43
2018-10-15T19:30:10.030Z,14.60
2018-10-15T19:32:38.142Z,13.70
2018-10-15T19:35:06.437Z,14.40
2018-10-15T19:37:34.617Z,14.50
2018-10-15T19:40:02.787Z,14.30
2018-10-15T19:42:30.894Z,17.13
2018-10-15T19:44:59.078Z,15.70
2018-10-15T19:47:27.162Z,15.00
2018-10-15T19:49:55.352Z,15.30
2018-10-15T19:52:23.483Z,15.90
2018-10-15T19:54:51.553Z,14.57
2018-10-15T19:57:19.757Z,16.03
2018-10-15T19:59:47.948Z,15.67
2018-10-15T20:02:16.121Z,15.50
2018-10-15T20:04:44.323Z,15.83
2018-10-15T20:07:12.577Z,15.20
2018-10-15T20:09:40.838Z,15.30
2018-10-15T20:12:09.148Z,15.23
2018-10-15T20:14:37.403Z,15.47
2018-10-15T20:17:05.875Z,15.17
2018-10-15T20:19:34.362Z,15.10
2018-10-15T20:22:02.616Z,15.73
2018-10-15T20:24:30.792Z,15.43
2018-10-15T20:26:58.968Z,16.90
2018-10-15T20:29:27.037Z,16.17
2018-10-15T20:31:55.152Z,16.57
2018-10-15T20:34:23.415Z,14.80
2018-10-15T20:36:51.618Z,15.33
2018-10-15T20:39:20.918Z,15.30
2018-10-15T20:41:49.024Z,15.20
2018-10-15T20:44:17.169Z,15.70
2018-10-15T20:46:45.371Z,16.10
2018-10-15T20:49:13.466Z,15.73
2018-10-15T20:51:41.707Z,15.20
2018-10-15T20:54:09.909Z,16.70
2018-10-15T20:56:38.076Z,16.60
2018-10-15T20:59:06.705Z,15.57
2018-10-15T21:01:34.802Z,15.67
2018-10-15T21:04:03.067Z,15.60
2018-10-15T21:06:31.410Z,15.90
2018-10-15T21:08:59.563Z,15.70
2018-10-15T21:11:27.735Z,15.43
2018-10-15T21:13:55.921Z,16.03
2018-10-15T21:16:24.305Z,16.90
2018-10-15T21:18:52.984Z,14.80
2018-10-15T21:21:21.158Z,13.73
2018-10-15T21:23:49.320Z,15.90
2018-10-15T21:26:17.445Z,15.20
2018-10-15T21:28:45.593Z,15.07
2018-10-15T21:31:13.828Z,14.03
2018-10-15T21:33:42.122Z,14.63
2018-10-15T21:36:10.217Z,13.23
2018-10-15T21:38:38.306Z,14.30
2018-10-15T21:41:06.477Z,14.13
2018-10-15T21:43:34.637Z,14.80
2018-10-15T21:46:02.852Z,13.50
2018-10-15T21:48:31.004Z,14.23
2018-10-15T21:50:59.111Z,13.03
2018-10-15T21:53:27.251Z,13.80
2018-10-15T21:55:55.388Z,14.27
2018-10-15T21:58:23.640Z,14.03
2018-10-15T22:00:52.887Z,14.63
2018-10-15T22:03:21.166Z,12.63
2018-10-15T22:05:49.489Z,14.17
2018-10-15T22:08:17.778Z,13.27
2018-10-15T22:10:45.880Z,13.57
2018-10-15T22:13:13.972Z,12.83
2018-10-15T22:15:42.121Z,14.00
2018-10-15T22:18:10.233Z,14.10
2018-10-15T22:20:38.684Z,14.00
2018-10-15T22:23:06.788Z,14.10
2018-10-15T22:25:34.864Z,13.67
2018-10-15T22:28:02.986Z,13.90
2018-10-15T22:30:31.175Z,12.70
2018-10-15T22:32:59.376Z,13.37
2018-10-15T22:35:27.445Z,12.80
2018-10-15T22:37:55.544Z,13.20
2018-10-15T22:40:23.636Z,13.70
2018-10-15T22:42:51.772Z,12.60
2018-10-15T22:45:20.023Z,12.73
2018-10-15T22:47:48.197Z,13.83
2018-10-15T22:50:16.382Z,13.20
2018-10-15T22:52:44.476Z,13.60
2018-10-15T22:55:12.735Z,12.37
2018-10-15T22:57:40.887Z,13.20
2018-10-15T23:00:14.189Z,12.53
2018-10-15T23:02:42.381Z,12.90
2018-10-15T23:05:10.480Z,12.10
2018-10-15T23:07:38.640Z,13.23
2018-10-15T23:10:11.548Z,12.67
2018-10-15T23:12:39.836Z,10.70
2018-10-15T23:15:08.294Z,11.80
2018-10-15T23:17:36.758Z,11.70
2018-10-15T23:20:05.408Z,11.00
2018-10-15T23:22:33.560Z,11.93
2018-10-15T23:25:01.684Z,11.40
2018-10-15T23:27:29.884Z,11.60
2018-10-15T23:29:57.941Z,11.00
2018-10-15T23:32:27.029Z,12.00
2018-10-15T23:34:55.634Z,11.03
2018-10-15T23:37:23.708Z,11.50
2018-10-15T23:39:51.793Z,10.60
2018-10-15T23:42:20.027Z,12.27
2018-10-15T23:44:48.134Z,11.00
2018-10-15T23:47:16.189Z,11.03
2018-10-15T23:49:44.293Z,11.80
2018-10-15T23:52:12.380Z,10.80
2018-10-15T23:54:40.451Z,11.00
2018-10-15T23:57:08.789Z,11.03
2018-10-15T23:59:36.977Z,12.10
